createdAt,value
2023-03-02T00:01:49.794Z,15.70
2023-03-02T00:04:46.305Z,11.13
2023-03-02T00:07:36.143Z,16.00
2023-03-02T00:10:22.776Z,11.27
2023-03-02T00:13:09.539Z,9.40
2023-03-02T00:16:02.366Z,10.67
2023-03-02T00:18:49.129Z,11.07
2023-03-02T00:21:35.837Z,11.17
2023-03-02T00:24:22.634Z,10.57
2023-03-02T00:27:09.373Z,10.97
2023-03-02T00:29:56.203Z,11.53
2023-03-02T00:32:44.435Z,9.77
2023-03-02T00:35:31.328Z,15.63
2023-03-02T00:38:18.025Z,14.33
2023-03-02T00:41:05.319Z,16.07
2023-03-02T00:43:52.466Z,14.17
2023-03-02T00:46:39.391Z,13.13
2023-03-02T00:49:28.259Z,13.37
2023-03-02T00:52:14.729Z,15.00
2023-03-02T00:55:01.575Z,12.10
2023-03-02T00:57:55.087Z,16.03
2023-03-02T01:00:46.707Z,13.33
2023-03-02T01:03:33.757Z,12.90
2023-03-02T01:06:23.153Z,15.30
2023-03-02T01:09:10.784Z,16.97
2023-03-02T01:11:57.273Z,14.50
2023-03-02T01:14:47.613Z,12.00
2023-03-02T01:17:35.062Z,13.07
2023-03-02T01:20:22.100Z,17.63
2023-03-02T01:23:09.897Z,12.27
2023-03-02T01:25:56.805Z,17.60
2023-03-02T01:28:43.698Z,14.63
2023-03-02T01:31:30.778Z,12.23
2023-03-02T01:34:17.471Z,12.57
2023-03-02T01:37:04.157Z,10.47
2023-03-02T01:39:52.495Z,16.03
2023-03-02T01:42:46.736Z,11.30
2023-03-02T01:45:47.078Z,16.80
2023-03-02T01:48:43.913Z,13.03
2023-03-02T01:51:35.719Z,14.87
2023-03-02T01:54:24.571Z,13.27
2023-03-02T01:57:24.395Z,11.27
2023-03-02T02:00:15.040Z,14.87
2023-03-02T02:03:09.814Z,16.17
2023-03-02T02:06:05.479Z,15.20
2023-03-02T02:08:55.479Z,10.80
2023-03-02T02:11:43.889Z,9.60
2023-03-02T02:14:32.105Z,12.10
2023-03-02T02:17:20.258Z,12.47
2023-03-02T02:20:19.643Z,17.30
2023-03-02T02:23:20.471Z,12.57
2023-03-02T02:26:18.604Z,14.97
2023-03-02T02:29:12.269Z,12.60
2023-03-02T02:32:06.856Z,13.47
2023-03-02T02:34:58.898Z,10.20
2023-03-02T02:37:50.057Z,13.50
2023-03-02T02:40:46.647Z,14.23
2023-03-02T02:43:37.109Z,12.30
2023-03-02T02:46:24.725Z,9.93
2023-03-02T02:49:22.579Z,12.87
2023-03-02T02:52:16.193Z,8.77
2023-03-02T02:55:03.381Z,16.03
2023-03-02T02:57:51.370Z,11.87
2023-03-02T03:00:39.482Z,13.87
2023-03-02T03:03:32.629Z,11.40
2023-03-02T03:06:26.943Z,11.07
2023-03-02T03:09:13.979Z,14.43
2023-03-02T03:12:12.206Z,12.50
2023-03-02T03:15:00.107Z,8.57
2023-03-02T03:17:56.166Z,11.80
2023-03-02T03:20:45.998Z,10.53
2023-03-02T03:23:33.271Z,15.33
2023-03-02T03:26:23.673Z,13.00
2023-03-02T03:29:10.642Z,13.50
2023-03-02T03:31:59.961Z,12.30
2023-03-02T03:34:49.175Z,10.00
2023-03-02T03:37:43.528Z,13.43
2023-03-02T03:40:34.354Z,11.10
2023-03-02T03:43:22.496Z,11.40
2023-03-02T03:46:12.854Z,13.47
2023-03-02T03:48:59.796Z,11.53
2023-03-02T03:51:47.996Z,12.37
2023-03-02T03:54:34.525Z,10.97
2023-03-02T03:57:21.344Z,16.30
2023-03-02T04:00:13.555Z,10.40
2023-03-02T04:03:09.089Z,12.03
2023-03-02T04:05:57.029Z,16.60
2023-03-02T04:08:45.664Z,12.27
2023-03-02T04:11:32.829Z,15.20
2023-03-02T04:14:19.899Z,14.27
2023-03-02T04:17:08.241Z,13.67
2023-03-02T04:19:59.526Z,11.40
2023-03-02T04:22:48.337Z,11.77
2023-03-02T04:25:36.656Z,10.87
2023-03-02T04:28:31.754Z,12.67
2023-03-02T04:31:19.243Z,11.70
2023-03-02T04:34:07.479Z,11.17
2023-03-02T04:36:56.749Z,16.57
2023-03-02T04:39:44.946Z,17.20
2023-03-02T04:42:33.130Z,12.83
2023-03-02T04:45:19.880Z,15.20
2023-03-02T04:48:07.607Z,14.67
2023-03-02T04:50:54.736Z,26.47
2023-03-02T04:53:41.301Z,29.23
2023-03-02T04:56:28.564Z,37.57
2023-03-02T04:59:16.829Z,29.93
2023-03-02T05:02:03.860Z,32.07
2023-03-02T05:04:50.658Z,39.80
2023-03-02T05:07:37.267Z,28.47
2023-03-02T05:10:24.716Z,31.07
2023-03-02T05:13:11.448Z,26.60
2023-03-02T05:15:59.577Z,29.87
2023-03-02T05:18:46.649Z,38.93
2023-03-02T05:21:33.248Z,30.93
2023-03-02T05:24:20.163Z,19.87
2023-03-02T05:27:06.672Z,29.67
2023-03-02T05:29:53.485Z,42.17
2023-03-02T05:32:41.644Z,21.90
2023-03-02T05:35:28.263Z,36.30
2023-03-02T05:38:15.738Z,26.77
2023-03-02T05:41:02.486Z,28.23
2023-03-02T05:43:49.345Z,38.43
2023-03-02T05:46:36.741Z,35.93
2023-03-02T05:49:24.691Z,29.57
2023-03-02T05:52:11.406Z,33.90
2023-03-02T05:54:59.469Z,40.03
2023-03-02T05:57:49.384Z,39.97
2023-03-02T06:00:35.803Z,40.40
2023-03-02T06:03:22.707Z,25.20
2023-03-02T06:06:14.459Z,33.53
2023-03-02T06:09:01.194Z,38.13
2023-03-02T06:11:48.224Z,32.27
2023-03-02T06:14:35.952Z,29.70
2023-03-02T06:17:22.862Z,23.67
2023-03-02T06:20:11.631Z,34.27
2023-03-02T06:22:59.822Z,31.07
2023-03-02T06:25:48.960Z,30.43
2023-03-02T06:28:49.818Z,34.80
2023-03-02T06:31:38.697Z,29.93
2023-03-02T06:34:25.311Z,26.27
2023-03-02T06:37:12.085Z,31.33
2023-03-02T06:40:00.462Z,41.10
2023-03-02T06:42:47.059Z,28.60
2023-03-02T06:45:34.811Z,31.63
2023-03-02T06:48:21.508Z,29.33
2023-03-02T06:51:08.502Z,33.53
2023-03-02T06:53:55.328Z,23.53
2023-03-02T06:56:43.623Z,31.07
2023-03-02T06:59:30.541Z,26.90
2023-03-02T07:02:17.468Z,45.77
2023-03-02T07:05:04.499Z,29.63
2023-03-02T07:07:51.244Z,31.90
2023-03-02T07:10:38.318Z,28.63
2023-03-02T07:13:26.397Z,36.37
2023-03-02T07:16:15.299Z,21.07
2023-03-02T07:19:02.123Z,17.67
2023-03-02T07:21:48.975Z,27.63
2023-03-02T07:24:35.746Z,25.63
2023-03-02T07:27:22.749Z,28.27
2023-03-02T07:30:14.945Z,32.97
2023-03-02T07:33:01.695Z,28.00
2023-03-02T07:35:48.347Z,20.87
2023-03-02T07:38:35.135Z,26.37
2023-03-02T07:41:22.894Z,26.50
2023-03-02T07:44:09.331Z,21.50
2023-03-02T07:46:58.781Z,24.47
2023-03-02T07:49:45.279Z,21.30
2023-03-02T07:52:32.199Z,20.90
2023-03-02T07:55:19.041Z,18.47
2023-03-02T07:58:05.796Z,25.07
2023-03-02T08:00:52.664Z,21.73
2023-03-02T08:03:40.785Z,18.70
2023-03-02T08:06:27.560Z,26.23
2023-03-02T08:09:16.868Z,20.13
2023-03-02T08:12:03.801Z,20.03
2023-03-02T08:14:50.691Z,18.47
2023-03-02T08:17:37.652Z,23.47
2023-03-02T08:20:26.568Z,23.63
2023-03-02T08:23:13.306Z,14.97
2023-03-02T08:26:00.168Z,23.83
2023-03-02T08:28:47.705Z,24.47
2023-03-02T08:31:35.151Z,18.47
2023-03-02T08:34:22.360Z,21.93
2023-03-02T08:37:10.677Z,24.03
2023-03-02T08:39:58.784Z,26.77
2023-03-02T08:42:50.155Z,26.60
2023-03-02T08:45:37.497Z,26.73
2023-03-02T08:48:25.289Z,21.83
2023-03-02T08:51:14.862Z,22.50
2023-03-02T08:54:02.870Z,27.67
2023-03-02T08:56:50.251Z,37.07
2023-03-02T08:59:56.186Z,26.17
2023-03-02T09:02:43.523Z,42.40
2023-03-02T09:05:30.365Z,25.97
2023-03-02T09:08:17.120Z,33.93
2023-03-02T09:11:05.672Z,26.23
2023-03-02T09:13:53.147Z,27.33
2023-03-02T09:16:40.284Z,25.30
2023-03-02T09:19:26.817Z,22.23
2023-03-02T09:22:13.760Z,19.50
2023-03-02T09:25:00.244Z,19.00
2023-03-02T09:27:48.793Z,17.33
2023-03-02T09:30:35.604Z,24.60
2023-03-02T09:33:22.944Z,21.97
2023-03-02T09:36:12.663Z,28.20
2023-03-02T09:38:59.185Z,17.73
2023-03-02T09:42:24.066Z,18.20
2023-03-02T09:45:34.027Z,21.53
2023-03-02T09:48:29.883Z,20.23
2023-03-02T09:51:26.876Z,21.27
2023-03-02T09:54:16.115Z,20.77
2023-03-02T09:57:04.178Z,24.97
2023-03-02T09:59:57.244Z,18.97
2023-03-02T10:02:49.967Z,21.03
2023-03-02T10:05:40.903Z,22.40
2023-03-02T10:08:30.793Z,19.73
2023-03-02T10:11:22.604Z,14.07
2023-03-02T10:14:16.577Z,17.60
2023-03-02T10:17:18.785Z,15.83
2023-03-02T10:20:14.003Z,14.17
2023-03-02T10:23:11.030Z,12.10
2023-03-02T10:26:06.445Z,16.40
2023-03-02T10:29:01.807Z,14.77
2023-03-02T10:31:53.612Z,12.53
2023-03-02T10:34:40.039Z,14.27
2023-03-02T10:37:34.728Z,18.10
2023-03-02T10:40:50.076Z,16.33
2023-03-02T10:43:47.837Z,13.67
2023-03-02T10:46:42.908Z,12.93
2023-03-02T10:49:31.326Z,13.63
2023-03-02T10:52:21.060Z,11.67
2023-03-02T10:55:16.408Z,12.13
2023-03-02T10:58:06.871Z,13.23
2023-03-02T11:00:58.202Z,11.63
2023-03-02T11:03:56.173Z,10.37
2023-03-02T11:06:42.896Z,17.13
2023-03-02T11:09:29.831Z,12.77
2023-03-02T11:12:19.235Z,13.07
2023-03-02T11:15:22.596Z,15.77
2023-03-02T11:18:15.744Z,14.27
2023-03-02T11:21:06.179Z,14.30
2023-03-02T11:24:01.586Z,14.00
2023-03-02T11:26:51.744Z,15.30
2023-03-02T11:29:45.524Z,18.43
2023-03-02T11:32:38.129Z,17.63
2023-03-02T11:35:32.398Z,17.30
2023-03-02T11:38:25.743Z,17.63
2023-03-02T11:41:27.313Z,15.37
2023-03-02T11:44:17.663Z,15.87
2023-03-02T11:47:05.760Z,18.77
2023-03-02T11:49:56.430Z,16.00
2023-03-02T11:52:47.556Z,16.90
2023-03-02T11:55:41.750Z,18.23
2023-03-02T11:58:30.898Z,19.20
2023-03-02T12:01:22.303Z,24.90
2023-03-02T12:04:26.380Z,20.70
2023-03-02T12:07:20.807Z,23.27
2023-03-02T12:10:24.163Z,22.37
2023-03-02T12:13:20.154Z,26.33
2023-03-02T12:16:21.106Z,22.87
2023-03-02T12:19:27.291Z,24.57
2023-03-02T12:22:15.411Z,27.83
2023-03-02T12:25:07.567Z,25.30
2023-03-02T12:27:55.562Z,34.80
2023-03-02T12:30:42.132Z,28.23
2023-03-02T12:33:28.934Z,31.67
2023-03-02T12:36:21.340Z,42.47
2023-03-02T12:39:21.363Z,38.03
2023-03-02T12:42:35.128Z,38.33
2023-03-02T12:45:34.786Z,40.13
2023-03-02T12:48:29.302Z,40.90
2023-03-02T12:51:22.203Z,37.83
2023-03-02T12:54:14.967Z,40.50
2023-03-02T12:57:08.911Z,29.47
2023-03-02T12:59:58.197Z,28.07
2023-03-02T13:02:48.261Z,28.70
2023-03-02T13:05:37.027Z,24.23
2023-03-02T13:08:28.851Z,27.47
2023-03-02T13:11:23.019Z,28.17
2023-03-02T13:14:21.019Z,31.90
2023-03-02T13:17:07.911Z,31.27
2023-03-02T13:19:55.245Z,30.30
2023-03-02T13:22:42.402Z,33.37
2023-03-02T13:25:32.333Z,36.03
2023-03-02T13:28:30.033Z,33.47
2023-03-02T13:31:22.359Z,33.53
2023-03-02T13:34:22.456Z,26.90
2023-03-02T13:37:21.504Z,29.93
2023-03-02T13:40:25.170Z,31.77
2023-03-02T13:43:24.928Z,24.30
2023-03-02T13:46:30.421Z,33.13
2023-03-02T13:49:27.926Z,34.80
2023-03-02T13:52:22.323Z,29.07
2023-03-02T13:55:15.149Z,28.57
2023-03-02T13:58:03.594Z,37.97
2023-03-02T14:00:52.668Z,27.63
2023-03-02T14:03:39.816Z,39.53
2023-03-02T14:06:26.256Z,25.37
2023-03-02T14:09:13.094Z,37.23
2023-03-02T14:11:59.995Z,47.27
2023-03-02T14:14:46.780Z,38.93
2023-03-02T14:17:36.175Z,31.50
2023-03-02T14:20:22.771Z,26.00
2023-03-02T14:23:09.988Z,22.63
2023-03-02T14:25:57.650Z,28.50
2023-03-02T14:28:44.880Z,31.83
2023-03-02T14:31:33.095Z,37.77
2023-03-02T14:34:21.777Z,38.00
2023-03-02T14:37:13.671Z,23.87
2023-03-02T14:40:00.434Z,27.20
2023-03-02T14:42:48.543Z,39.57
2023-03-02T14:45:35.315Z,36.60
2023-03-02T14:48:22.165Z,36.63
2023-03-02T14:51:20.091Z,40.70
2023-03-02T14:54:09.876Z,25.57
2023-03-02T14:56:56.481Z,34.57
2023-03-02T14:59:43.254Z,31.63
2023-03-02T15:02:30.199Z,29.77
2023-03-02T15:05:16.954Z,29.27
2023-03-02T15:08:05.496Z,26.33
2023-03-02T15:10:52.374Z,31.57
2023-03-02T15:13:39.188Z,37.40
2023-03-02T15:16:30.530Z,36.70
2023-03-02T15:19:17.074Z,27.37
2023-03-02T15:22:04.915Z,32.70
2023-03-02T15:24:53.061Z,32.90
2023-03-02T15:27:39.761Z,38.50
2023-03-02T15:30:30.564Z,30.77
2023-03-02T15:33:16.872Z,25.43
2023-03-02T15:36:06.340Z,25.57
2023-03-02T15:38:53.660Z,28.90
2023-03-02T15:41:42.182Z,17.07
2023-03-02T15:44:29.776Z,24.87
2023-03-02T15:47:16.725Z,29.07
2023-03-02T15:50:03.489Z,29.67
2023-03-02T15:52:51.216Z,25.27
2023-03-02T15:55:41.710Z,28.73
2023-03-02T15:58:29.899Z,31.23
2023-03-02T16:01:17.785Z,29.57
2023-03-02T16:04:04.598Z,26.80
2023-03-02T16:06:51.129Z,25.87
2023-03-02T16:09:37.842Z,28.53
2023-03-02T16:12:25.398Z,29.67
2023-03-02T16:15:13.447Z,22.37
2023-03-02T16:18:00.047Z,31.13
2023-03-02T16:20:46.839Z,31.03
2023-03-02T16:23:33.779Z,36.17
2023-03-02T16:26:22.579Z,36.13
2023-03-02T16:29:09.408Z,35.67
2023-03-02T16:31:57.528Z,39.13
2023-03-02T16:34:44.401Z,33.20
2023-03-02T16:37:31.242Z,34.57
2023-03-02T16:40:18.031Z,30.10
2023-03-02T16:43:06.212Z,30.63
2023-03-02T16:45:53.379Z,31.67
2023-03-02T16:48:41.433Z,28.83
2023-03-02T16:51:27.796Z,26.73
2023-03-02T16:54:17.334Z,27.77
2023-03-02T16:57:04.148Z,34.13
2023-03-02T16:59:50.940Z,28.33
2023-03-02T17:02:37.938Z,35.47
2023-03-02T17:05:25.920Z,29.73
2023-03-02T17:08:14.030Z,33.90
2023-03-02T17:11:00.500Z,31.50
2023-03-02T17:13:47.368Z,37.17
2023-03-02T17:16:34.136Z,34.07
2023-03-02T17:19:20.893Z,37.07
2023-03-02T17:22:09.302Z,37.13
2023-03-02T17:24:55.921Z,35.07
2023-03-02T17:27:42.588Z,32.63
2023-03-02T17:30:29.474Z,35.03
2023-03-02T17:33:16.868Z,26.33
2023-03-02T17:36:07.471Z,25.13
2023-03-02T17:38:55.610Z,23.37
2023-03-02T17:41:42.466Z,25.13
2023-03-02T17:44:29.389Z,22.70
2023-03-02T17:47:16.604Z,26.30
2023-03-02T17:50:05.057Z,22.97
2023-03-02T17:52:52.375Z,18.47
2023-03-02T17:55:40.474Z,17.77
2023-03-02T17:58:35.976Z,38.70
2023-03-02T18:01:31.064Z,31.63
2023-03-02T18:04:18.225Z,21.53
2023-03-02T18:07:04.904Z,25.63
2023-03-02T18:09:53.334Z,20.47
2023-03-02T18:12:42.030Z,16.80
2023-03-02T18:15:29.970Z,19.23
2023-03-02T18:18:16.802Z,17.23
2023-03-02T18:21:03.944Z,20.93
2023-03-02T18:23:50.852Z,20.23
2023-03-02T18:26:38.104Z,22.30
2023-03-02T18:29:26.874Z,31.27
2023-03-02T18:32:14.176Z,26.87
2023-03-02T18:35:01.068Z,21.90
2023-03-02T18:37:47.701Z,20.73
2023-03-02T18:40:35.030Z,26.13
2023-03-02T18:43:21.722Z,17.27
2023-03-02T18:46:19.032Z,17.40
2023-03-02T18:49:06.031Z,18.07
2023-03-02T18:51:53.055Z,21.37
2023-03-02T18:54:39.475Z,14.70
2023-03-02T18:57:26.816Z,17.60
2023-03-02T19:00:18.226Z,17.43
2023-03-02T19:03:06.457Z,20.60
2023-03-02T19:05:57.587Z,17.97
2023-03-02T19:08:44.675Z,18.10
2023-03-02T19:11:33.581Z,12.03
2023-03-02T19:14:21.975Z,13.63
2023-03-02T19:17:10.517Z,12.87
2023-03-02T19:20:03.456Z,10.67
2023-03-02T19:22:51.800Z,18.00
2023-03-02T19:26:02.376Z,15.23
2023-03-02T19:28:50.636Z,12.20
2023-03-02T19:31:40.617Z,16.63
2023-03-02T19:34:27.781Z,13.17
2023-03-02T19:37:17.630Z,18.13
2023-03-02T19:40:07.001Z,14.77
2023-03-02T19:42:56.316Z,12.70
2023-03-02T19:45:44.848Z,12.40
2023-03-02T19:48:34.467Z,10.40
2023-03-02T19:51:22.701Z,28.43
2023-03-02T19:54:12.062Z,25.10
2023-03-02T19:57:00.304Z,47.67
2023-03-02T19:59:50.045Z,38.50
2023-03-02T20:02:41.267Z,32.53
2023-03-02T20:05:31.157Z,14.40
2023-03-02T20:08:21.633Z,16.73
2023-03-02T20:11:09.828Z,16.03
2023-03-02T20:13:57.434Z,15.77
2023-03-02T20:16:43.966Z,18.40
2023-03-02T20:19:30.417Z,18.43
2023-03-02T20:22:17.921Z,20.03
2023-03-02T20:25:04.913Z,21.13
2023-03-02T20:27:53.135Z,19.70
2023-03-02T20:30:42.003Z,21.40
2023-03-02T20:33:32.770Z,27.50
2023-03-02T20:36:25.208Z,23.13
2023-03-02T20:39:17.579Z,25.70
2023-03-02T20:42:06.036Z,23.83
2023-03-02T20:44:56.424Z,21.23
2023-03-02T20:47:43.131Z,28.77
2023-03-02T20:50:32.244Z,35.93
2023-03-02T20:53:19.169Z,25.63
2023-03-02T20:56:06.494Z,30.87
2023-03-02T20:58:53.060Z,43.23
2023-03-02T21:01:41.089Z,28.97
2023-03-02T21:04:28.400Z,32.63
2023-03-02T21:07:15.732Z,28.73
2023-03-02T21:10:02.953Z,38.60
2023-03-02T21:12:50.935Z,30.47
2023-03-02T21:15:39.100Z,30.00
2023-03-02T21:18:27.553Z,28.87
2023-03-02T21:21:15.112Z,32.80
2023-03-02T21:24:03.727Z,30.10
2023-03-02T21:26:53.102Z,28.83
2023-03-02T21:29:40.344Z,26.23
2023-03-02T21:32:26.768Z,21.83
2023-03-02T21:35:15.329Z,28.13
2023-03-02T21:38:05.989Z,27.97
2023-03-02T21:40:52.898Z,31.60
2023-03-02T21:43:40.205Z,27.13
2023-03-02T21:46:27.198Z,33.13
2023-03-02T21:49:17.239Z,27.97
2023-03-02T21:52:08.003Z,28.70
2023-03-02T21:54:54.525Z,22.77
2023-03-02T21:57:44.179Z,26.03
2023-03-02T22:00:33.443Z,38.10
2023-03-02T22:03:20.369Z,43.23
2023-03-02T22:06:19.454Z,35.07
2023-03-02T22:09:07.730Z,38.47
2023-03-02T22:11:54.635Z,31.40
2023-03-02T22:14:41.196Z,32.67
2023-03-02T22:17:27.887Z,35.87
2023-03-02T22:20:19.903Z,32.63
2023-03-02T22:23:12.800Z,35.30
2023-03-02T22:26:14.241Z,40.53
2023-03-02T22:29:09.859Z,43.23
2023-03-02T22:31:58.744Z,35.70
2023-03-02T22:34:46.478Z,34.10
2023-03-02T22:37:35.517Z,34.70
2023-03-02T22:40:30.265Z,33.97
2023-03-02T22:43:26.064Z,33.07
2023-03-02T22:46:15.965Z,28.73
2023-03-02T22:49:02.974Z,30.80
2023-03-02T22:51:49.363Z,43.43
2023-03-02T22:54:38.956Z,31.73
2023-03-02T22:57:30.956Z,41.73
2023-03-02T23:00:36.024Z,40.70
2023-03-02T23:03:24.455Z,29.13
2023-03-02T23:06:29.546Z,39.73
2023-03-02T23:09:18.593Z,33.70
2023-03-02T23:12:16.486Z,31.07
2023-03-02T23:15:18.316Z,41.47
2023-03-02T23:18:18.169Z,27.23
2023-03-02T23:21:13.745Z,39.37
2023-03-02T23:24:01.482Z,33.27
2023-03-02T23:26:47.977Z,32.10
2023-03-02T23:29:35.160Z,39.20
2023-03-02T23:32:21.823Z,36.00
2023-03-02T23:35:10.671Z,32.67
2023-03-02T23:37:58.150Z,40.37
2023-03-02T23:40:44.702Z,32.77
2023-03-02T23:43:31.409Z,45.33
2023-03-02T23:46:18.157Z,42.23
2023-03-02T23:49:04.932Z,31.03
2023-03-02T23:51:53.236Z,37.47
2023-03-02T23:54:39.776Z,41.70
2023-03-02T23:57:27.070Z,41.07
